Аэропорт: Астана. Астана

ICAO: UACC

METAR:
2020-10-23 11:30:00
UACC 231130Z 22006MPS 9999 SCT026CB BKN040 M01/M05 Q1017 R22/0///70 NOSIG RMK QFE731/0975
METAR:
2020-10-23 05:01:00
TAF UACC 230501Z 2306/2406 26008MPS 5000 -SHSNRA SCT020CB OVC040 TX02/2309Z TNM08/2401Z TEMPO 2306/2315 28012MPS 1200 SHSNRA BKN005 BKN011CB FM231500 28006MPS 9999 SCT011 BKN040 TEMPO 2315/2318 5000 -SHSN SCT005 BKN011CB TEMPO 2318/2402 VRB02MPS 3100 BR BKN004 BKN030 BECMG 2402/2404 24006MPS